Time;durP1;ratioP1;P1;durP2;ratioP2;P2;SDS_P1;SDS_P2;PMS_P1;PMS_P2;Temp;Humidity;BMP_temperature;BMP_pressure;BME280_temperature;BME280_humidity;BME280_pressure;Samples;Min_cycle;Max_cycle;Signal;HPM_P1;HPM_P2
2021/06/18 07:32:46;;;;;;;14.90;3.70;;;23.50;99.90;;;;;;12049428;27;20387;-58
2021/06/18 07:38:33;;;;;;;10.40;3.83;;;24.10;99.90;;;;;;12051938;28;20565;-57
2021/06/18 09:58:31;;;;;;;5.82;2.10;;;25.10;99.90;;;;;;12167584;27;20370;-77
2021/06/18 10:04:19;;;;;;;6.55;2.65;;;26.60;99.90;;;;;;12116822;28;20056;-77
2021/06/18 10:10:08;;;;;;;7.00;2.55;;;26.40;99.90;;;;;;12095617;28;20531;-77
2021/06/18 10:15:56;;;;;;;6.97;2.25;;;26.50;99.90;;;;;;12100505;28;20047;-78
2021/06/18 10:21:52;;;;;;;2.65;2.03;;;26.00;99.90;;;;;;12107671;28;20087;-77
2021/06/18 10:27:46;;;;;;;5.25;2.10;;;26.30;99.90;;;;;;12102260;28;20055;-77
2021/06/18 10:33:36;;;;;;;6.43;2.42;;;26.60;99.90;;;;;;12109468;28;20445;-78
2021/06/18 10:39:23;;;;;;;4.50;2.25;;;26.50;99.90;;;;;;12098661;28;20055;-77
2021/06/18 10:45:10;;;;;;;10.32;2.65;;;26.20;99.90;;;;;;12098303;28;20047;-78
2021/06/18 10:50:58;;;;;;;5.40;2.30;;;26.60;99.90;;;;;;12103388;28;22225;-78
2021/06/18 10:57:06;;;;;;;10.93;2.50;;;26.70;99.90;;;;;;12082079;28;20063;-77
2021/06/18 11:02:53;;;;;;;9.32;2.33;;;26.50;99.90;;;;;;12066266;28;20048;-76
2021/06/18 11:08:47;;;;;;;7.10;2.13;;;26.20;99.90;;;;;;12062167;28;20416;-78
2021/06/18 11:14:38;;;;;;;4.78;1.88;;;26.00;99.90;;;;;;11995571;27;20071;-78
2021/06/18 11:20:46;;;;;;;3.33;1.92;;;26.40;99.90;;;;;;12052951;28;20052;-77
2021/06/18 11:26:35;;;;;;;6.60;2.20;;;27.00;99.90;;;;;;12063031;28;20694;-76
2021/06/18 11:32:42;;;;;;;2.90;1.70;;;27.00;99.90;;;;;;12057131;28;20063;-77
2021/06/18 11:38:30;;;;;;;2.75;1.52;;;26.90;99.90;;;;;;12095172;27;20087;-77
2021/06/18 11:44:23;;;;;;;1.98;1.63;;;27.00;99.90;;;;;;12049415;28;20055;-77
2021/06/18 11:50:10;;;;;;;;;;;27.40;99.90;;;;;;12053158;28;20044;-76
2021/06/18 11:55:58;;;;;;;4.13;1.83;;;27.50;98.70;;;;;;12053410;28;19935;-77
2021/06/18 12:01:47;;;;;;;5.88;2.20;;;26.90;98.30;;;;;;12060078;28;20048;-77
2021/06/18 12:07:35;;;;;;;3.72;1.70;;;26.60;99.90;;;;;;12061992;28;20056;-78
2021/06/18 12:13:22;;;;;;;3.33;1.70;;;26.60;99.90;;;;;;12061728;28;20040;-79
2021/06/18 12:19:22;;;;;;;3.40;1.65;;;27.00;99.10;;;;;;12068032;28;20052;-78
2021/06/18 12:25:11;;;;;;;2.70;1.40;;;27.70;97.90;;;;;;12067213;28;20468;-77
2021/06/18 12:30:58;;;;;;;4.20;1.75;;;27.80;97.00;;;;;;12066049;28;20538;-77
2021/06/18 12:36:48;;;;;;;3.38;1.65;;;27.80;96.30;;;;;;12070821;28;20051;-76
2021/06/18 12:42:41;;;;;;;4.03;1.80;;;27.70;96.10;;;;;;12063002;28;20424;-77
2021/06/18 12:48:31;;;;;;;3.58;1.55;;;27.70;96.60;;;;;;12066724;28;20055;-77
2021/06/18 12:54:31;;;;;;;3.30;1.40;;;28.00;95.90;;;;;;12069841;28;20065;-76
2021/06/18 13:00:18;;;;;;;2.58;1.42;;;28.30;96.30;;;;;;12046623;28;20138;-77
2021/06/18 13:06:09;;;;;;;3.35;1.23;;;28.40;96.00;;;;;;12056523;28;20068;-76
2021/06/18 13:11:57;;;;;;;1.52;1.42;;;28.20;94.70;;;;;;12054377;28;20059;-76
2021/06/18 13:17:51;;;;;;;4.00;1.40;;;28.40;95.30;;;;;;12057652;28;20083;-76
2021/06/18 13:23:40;;;;;;;1.13;0.90;;;28.60;94.00;;;;;;12050523;28;20059;-76
2021/06/18 13:29:28;;;;;;;16.05;1.65;;;28.80;94.40;;;;;;12071749;28;20048;-77
2021/06/18 13:35:17;;;;;;;4.65;1.10;;;29.20;92.70;;;;;;12071598;28;20105;-77
2021/06/18 13:41:04;;;;;;;1.95;1.02;;;29.40;92.30;;;;;;12057617;28;20083;-77
2021/06/18 13:46:53;;;;;;;2.90;1.23;;;29.20;91.90;;;;;;12045341;28;20063;-77
2021/06/18 13:52:41;;;;;;;1.77;1.00;;;29.20;92.00;;;;;;12044746;28;20106;-77
2021/06/18 13:58:28;;;;;;;2.97;1.38;;;28.90;92.30;;;;;;12049245;28;20052;-78
2021/06/18 14:04:16;;;;;;;1.45;1.15;;;29.20;92.20;;;;;;12045793;28;20087;-77
2021/06/18 14:10:05;;;;;;;1.90;1.15;;;29.10;90.90;;;;;;12046727;28;20056;-76
2021/06/18 14:15:51;;;;;;;2.15;1.10;;;29.10;92.30;;;;;;12051051;28;20059;-77
2021/06/18 14:21:41;;;;;;;1.95;1.30;;;29.30;91.00;;;;;;12051663;28;20040;-77
2021/06/18 14:27:28;;;;;;;1.58;1.15;;;29.30;90.90;;;;;;12057436;28;20048;-78
2021/06/18 14:33:15;;;;;;;5.32;1.30;;;29.50;91.30;;;;;;12070312;28;20048;-77
2021/06/18 14:39:09;;;;;;;1.30;1.20;;;29.60;89.80;;;;;;12072962;27;20056;-78
2021/06/18 14:44:56;;;;;;;5.13;1.08;;;29.20;89.90;;;;;;12069312;28;20195;-78
2021/06/18 14:50:45;;;;;;;1.52;1.10;;;28.90;91.20;;;;;;12077413;28;20416;-77
2021/06/18 14:56:34;;;;;;;3.30;1.20;;;28.50;92.20;;;;;;12098584;28;20129;-77
2021/06/18 15:02:20;;;;;;;1.65;1.30;;;28.20;92.80;;;;;;12116744;28;20056;-78
2021/06/18 15:08:07;;;;;;;7.32;2.00;;;27.90;93.50;;;;;;12050285;28;20063;-78
2021/06/18 15:13:55;;;;;;;6.25;1.40;;;26.60;99.90;;;;;;12061177;28;20059;-78
2021/06/18 15:19:42;;;;;;;3.90;1.70;;;25.50;99.90;;;;;;12058611;28;20044;-78
2021/06/18 15:25:29;;;;;;;2.17;1.33;;;25.30;99.90;;;;;;12072901;28;20067;-78
2021/06/18 15:31:17;;;;;;;2.40;1.20;;;25.60;99.90;;;;;;12072179;28;20055;-76
2021/06/18 15:37:05;;;;;;;4.63;1.75;;;25.70;99.90;;;;;;12068552;28;20044;-78
2021/06/18 15:42:52;;;;;;;1.80;1.38;;;26.70;99.90;;;;;;12069423;28;20112;-78
2021/06/18 15:48:41;;;;;;;3.35;1.40;;;28.40;99.90;;;;;;12066479;28;20051;-78
2021/06/18 15:54:32;;;;;;;2.50;1.50;;;29.10;99.90;;;;;;12062869;28;20056;-78
2021/06/18 16:00:20;;;;;;;2.72;1.33;;;28.70;99.90;;;;;;12059165;28;20071;-77
2021/06/18 16:06:09;;;;;;;2.38;1.20;;;28.30;99.90;;;;;;12062071;28;20047;-79
2021/06/18 16:11:56;;;;;;;1.92;1.50;;;28.80;99.90;;;;;;12060013;28;20063;-77
2021/06/18 16:17:43;;;;;;;2.45;1.42;;;29.10;99.90;;;;;;12055920;28;20048;-78
2021/06/18 16:23:31;;;;;;;3.20;1.45;;;28.20;99.90;;;;;;12054499;28;20052;-78
2021/06/18 16:29:18;;;;;;;3.92;1.27;;;29.00;99.90;;;;;;12063372;28;20059;-78
2021/06/18 16:35:08;;;;;;;3.03;1.13;;;32.30;99.90;;;;;;12063008;28;20105;-77
2021/06/18 16:40:57;;;;;;;2.58;1.20;;;33.60;93.80;;;;;;12062955;28;20048;-77
2021/06/18 16:46:45;;;;;;;2.45;1.30;;;32.20;91.70;;;;;;12061333;28;20521;-78
2021/06/18 16:52:33;;;;;;;2.08;1.13;;;32.20;92.60;;;;;;12060700;28;20458;-77
2021/06/18 16:58:22;;;;;;;1.55;1.45;;;32.10;89.50;;;;;;12058782;28;20058;-77
2021/06/18 17:04:10;;;;;;;2.78;1.50;;;30.70;91.20;;;;;;12060088;28;20413;-77
2021/06/18 17:09:57;;;;;;;9.65;1.10;;;32.40;83.00;;;;;;12059975;28;20060;-77
2021/06/18 17:15:46;;;;;;;1.10;1.10;;;32.10;81.30;;;;;;12055794;28;20060;-76
2021/06/18 17:21:35;;;;;;;2.80;1.30;;;32.80;75.70;;;;;;12051004;28;20056;-77
2021/06/18 17:27:22;;;;;;;3.20;1.38;;;32.90;73.70;;;;;;12061137;28;20079;-77
2021/06/18 17:33:10;;;;;;;2.97;1.40;;;33.00;70.20;;;;;;12063426;28;20467;-79
2021/06/18 17:38:57;;;;;;;2.35;1.15;;;31.90;73.10;;;;;;12062725;28;20428;-78
2021/06/18 17:44:44;;;;;;;2.10;1.48;;;31.60;71.80;;;;;;12057272;28;20515;-78
2021/06/18 17:50:32;;;;;;;2.95;1.25;;;31.80;71.10;;;;;;12057778;28;20059;-77
2021/06/18 17:56:20;;;;;;;1.52;1.05;;;34.20;63.30;;;;;;12051551;28;20059;-78
2021/06/18 18:02:07;;;;;;;3.42;1.33;;;36.30;56.90;;;;;;12055015;28;20473;-79
2021/06/18 18:07:55;;;;;;;4.97;1.40;;;37.30;53.90;;;;;;12061443;28;20052;-79
2021/06/18 18:13:42;;;;;;;2.78;1.33;;;35.90;56.60;;;;;;12088544;28;20043;-79
2021/06/18 18:19:29;;;;;;;1.60;1.42;;;35.40;56.00;;;;;;12075039;28;20524;-80
2021/06/18 18:25:18;;;;;;;2.88;1.00;;;33.40;60.60;;;;;;12071212;28;20052;-78
2021/06/18 18:31:04;;;;;;;2.90;1.50;;;35.00;58.80;;;;;;12075990;28;20056;-78
2021/06/18 18:36:56;;;;;;;4.22;2.40;;;36.80;54.60;;;;;;12070521;28;20052;-82
2021/06/18 18:42:44;;;;;;;2.00;1.47;;;36.80;54.40;;;;;;12068216;28;20047;-79
2021/06/18 18:48:31;;;;;;;3.17;1.58;;;36.60;54.10;;;;;;12066671;28;20063;-78
2021/06/18 18:54:18;;;;;;;2.78;1.48;;;36.20;54.50;;;;;;12068781;28;20059;-79
2021/06/18 19:00:10;;;;;;;3.85;1.70;;;35.30;56.80;;;;;;12064511;28;20056;-78
2021/06/18 19:05:57;;;;;;;1.73;1.52;;;33.40;60.10;;;;;;12060540;28;20052;-79
2021/06/18 19:11:44;;;;;;;3.25;1.75;;;31.80;64.50;;;;;;12057185;28;20060;-79
2021/06/18 19:17:32;;;;;;;1.65;1.55;;;31.20;65.30;;;;;;12041724;28;20052;-77
2021/06/18 19:23:19;;;;;;;3.70;1.80;;;30.60;66.70;;;;;;12061162;28;20055;-78
2021/06/18 19:29:08;;;;;;;3.40;1.88;;;29.50;70.80;;;;;;12047980;28;20055;-78
2021/06/18 19:34:57;;;;;;;3.38;1.90;;;28.90;73.00;;;;;;12046119;28;20663;-77
2021/06/18 19:40:44;;;;;;;6.20;1.95;;;28.30;75.70;;;;;;12053373;28;22224;-79
2021/06/18 19:46:31;;;;;;;2.15;1.67;;;27.70;78.10;;;;;;12051210;28;20056;-78
2021/06/18 19:52:19;;;;;;;5.68;1.90;;;27.50;80.70;;;;;;12075778;28;20078;-79
2021/06/18 19:58:07;;;;;;;2.10;1.70;;;27.30;80.80;;;;;;12056495;27;20060;-78
2021/06/18 20:03:54;;;;;;;3.40;2.28;;;27.10;82.30;;;;;;12075902;28;20067;-77
2021/06/18 20:09:43;;;;;;;4.03;2.00;;;26.80;83.70;;;;;;12102818;28;20124;-77
2021/06/18 20:15:30;;;;;;;4.93;2.00;;;26.70;84.70;;;;;;12045611;28;20059;-77
2021/06/18 20:21:17;;;;;;;4.50;2.10;;;26.70;86.50;;;;;;12060328;28;20051;-78
2021/06/18 20:27:06;;;;;;;8.25;2.15;;;26.60;87.80;;;;;;12080752;28;20056;-77
2021/06/18 20:32:53;;;;;;;4.90;1.95;;;26.60;88.50;;;;;;12079402;28;20056;-77
2021/06/18 20:38:42;;;;;;;2.78;1.75;;;26.50;90.10;;;;;;12081381;28;20048;-78
2021/06/18 20:44:31;;;;;;;4.03;1.90;;;26.30;90.90;;;;;;12069976;28;20048;-78
2021/06/18 20:50:19;;;;;;;5.63;1.92;;;26.20;91.90;;;;;;12046601;28;20056;-78
2021/06/18 20:56:06;;;;;;;7.15;2.60;;;26.00;93.00;;;;;;12042160;28;20673;-78
2021/06/18 21:01:55;;;;;;;4.35;2.40;;;25.90;93.40;;;;;;12038412;28;20071;-78
2021/06/18 21:07:42;;;;;;;2.60;2.10;;;25.90;93.90;;;;;;12026681;28;20051;-78
2021/06/18 21:13:30;;;;;;;3.17;2.03;;;25.80;94.40;;;;;;12041691;28;20052;-78
2021/06/18 21:19:18;;;;;;;6.53;2.30;;;25.60;95.30;;;;;;12039133;28;20055;-79
2021/06/18 21:25:07;;;;;;;3.85;2.15;;;25.60;95.80;;;;;;12065263;28;20516;-79
2021/06/18 21:30:54;;;;;;;5.25;2.17;;;25.50;96.40;;;;;;12043234;28;20047;-78
2021/06/18 21:36:42;;;;;;;4.68;2.50;;;25.40;96.70;;;;;;12040729;28;20458;-78
2021/06/18 21:42:29;;;;;;;7.40;2.28;;;25.40;97.00;;;;;;12031558;28;20052;-77
2021/06/18 21:48:16;;;;;;;3.30;2.00;;;25.30;97.60;;;;;;12027222;28;20056;-77
2021/06/18 21:54:06;;;;;;;5.80;2.15;;;25.30;98.10;;;;;;12036978;28;20071;-77
2021/06/18 21:59:53;;;;;;;5.88;2.63;;;25.20;98.70;;;;;;12026983;28;20393;-76
2021/06/18 22:05:40;;;;;;;4.78;2.35;;;25.30;99.40;;;;;;12039994;28;20477;-77
2021/06/18 22:11:30;;;;;;;4.90;2.13;;;25.10;99.20;;;;;;12047877;28;20051;-78
2021/06/18 22:17:17;;;;;;;5.40;2.25;;;25.00;99.90;;;;;;12051896;28;20111;-77
2021/06/18 22:23:05;;;;;;;9.02;2.40;;;25.00;99.90;;;;;;12048500;28;20487;-82
2021/06/18 22:28:55;;;;;;;2.78;2.25;;;24.90;99.90;;;;;;12045175;28;20059;-78
2021/06/18 22:34:42;;;;;;;2.83;1.80;;;24.90;99.90;;;;;;12041597;28;20052;-78
2021/06/18 22:40:29;;;;;;;2.97;2.42;;;24.90;99.90;;;;;;12042466;28;20060;-77
2021/06/18 22:46:18;;;;;;;3.28;2.20;;;24.80;99.90;;;;;;12049105;28;20059;-78
2021/06/18 22:52:05;;;;;;;6.05;2.30;;;24.80;99.90;;;;;;12043688;28;20055;-79
2021/06/18 22:57:54;;;;;;;7.35;2.05;;;24.70;99.90;;;;;;12047250;27;20047;-78
2021/06/18 23:03:45;;;;;;;2.53;2.17;;;24.70;99.90;;;;;;12056597;28;20048;-78
2021/06/18 23:09:32;;;;;;;4.47;2.05;;;24.70;99.90;;;;;;12052059;28;20048;-78
2021/06/18 23:15:19;;;;;;;12.18;2.40;;;24.70;99.90;;;;;;12053609;28;20044;-77
2021/06/18 23:21:07;;;;;;;7.35;2.17;;;24.60;99.90;;;;;;12052762;28;20078;-78
2021/06/18 23:26:54;;;;;;;9.48;2.90;;;24.60;99.90;;;;;;12051708;28;20079;-77
2021/06/18 23:32:41;;;;;;;8.07;2.90;;;24.40;99.90;;;;;;12047188;28;20056;-77
2021/06/18 23:38:29;;;;;;;15.15;2.55;;;24.30;99.90;;;;;;12052292;28;20052;-77
2021/06/18 23:44:16;;;;;;;3.03;2.15;;;24.30;99.90;;;;;;12045528;28;21381;-76
2021/06/18 23:50:03;;;;;;;5.07;2.10;;;24.30;99.90;;;;;;12046200;28;20188;-77
2021/06/18 23:55:52;;;;;;;5.88;2.35;;;24.30;99.90;;;;;;12050359;28;20134;-77
